This is the latest recevied weather packets stored in our database for station/object YC0TBU-4. If no packets are shown the sender has not sent any weather packets the latest 10 day(s).
| Time | Temp. | Humidity | Pressure | Rain* | Wind** | Luminosity | Snow |
|---|---|---|---|---|---|---|---|
| 1787555756 | 29.44° C | 35% | 1012.6 hPa | - | - | - | - |
| 1787553955 | 31.67° C | 32% | 1013 hPa | - | - | - | - |
| 1787552155 | 31.67° C | 32% | 1013.4 hPa | - | - | - | - |
| 1787550355 | 31.67° C | 30% | 1013.9 hPa | - | - | - | - |
| 1787548555 | 31.67° C | 32% | 1014.3 hPa | - | - | - | - |
| 1787546739 | 31.11° C | 32% | 1014.9 hPa | - | - | - | - |
| 1787544923 | 30.56° C | 35% | 1015.3 hPa | - | - | - | - |
| 1787543107 | 28.33° C | 39% | 1016.2 hPa | - | - | - | - |
| 1787541307 | 28.33° C | 40% | 1016.7 hPa | - | - | - | - |
| 1787539507 | 27.78° C | 41% | 1016.9 hPa | - | - | - | - |
| 1787537707 | 27.78° C | 42% | 1017 hPa | - | - | - | - |
| 1787535907 | 27.22° C | 44% | 1016.9 hPa | - | - | - | - |
| 1787534107 | 26.67° C | 44% | 1016.6 hPa | - | - | - | - |
| 1787532307 | 26.67° C | 44% | 1016.3 hPa | - | - | - | - |
| 1787530507 | 26.67° C | 43% | 1016.1 hPa | - | - | - | - |
| 1787528707 | 26.11° C | 42% | 1015.8 hPa | - | - | - | - |
| 1787526907 | 26.67° C | 42% | 1015.6 hPa | - | - | - | - |
| 1787525107 | 26.67° C | 42% | 1015.3 hPa | - | - | - | - |
| 1787523307 | 26.67° C | 42% | 1014.9 hPa | - | - | - | - |
| 1787521506 | 26.67° C | 42% | 1014.7 hPa | - | - | - | - |
| 1787519707 | 26.67° C | 42% | 1014.5 hPa | - | - | - | - |
| 1787517906 | 26.67° C | 42% | 1014.5 hPa | - | - | - | - |
| 1787516106 | 27.22° C | 43% | 1014.7 hPa | - | - | - | - |
| 1787514290 | 27.22° C | 45% | 1014.5 hPa | - | - | - | - |
| 1787512474 | 27.22° C | 44% | 1014.5 hPa | - | - | - | - |
* Rain since midnight (hover to see other rain measurements)
** Current wind speed in m/s (hover to see current wind gust speed)